Time;durP1;ratioP1;P1;durP2;ratioP2;P2;SDS_P1;SDS_P2;PMS_P1;PMS_P2;Temp;Humidity;BMP_temperature;BMP_pressure;BME280_temperature;BME280_humidity;BME280_pressure;Samples;Min_cycle;Max_cycle;Signal;HPM_P1;HPM_P2
2023/06/28 00:01:53;;;;;;;1999.90;999.90;;;16.00;99.90;;;;;;5025016;28;20431;-74
2023/06/28 00:04:20;;;;;;;1999.90;999.90;;;16.00;99.90;;;;;;5016477;28;20424;-74
2023/06/28 00:06:47;;;;;;;1999.90;999.90;;;16.00;99.90;;;;;;5022495;28;20435;-73
2023/06/28 00:09:14;;;;;;;1999.90;999.90;;;15.90;99.90;;;;;;5017746;28;20427;-73
2023/06/28 00:11:40;;;;;;;1999.90;999.90;;;15.90;99.90;;;;;;5022218;28;20495;-71
2023/06/28 00:14:07;;;;;;;1999.90;999.90;;;15.80;99.90;;;;;;5020339;28;20439;-73
2023/06/28 00:19:00;;;;;;;1999.90;999.90;;;15.70;99.90;;;;;;4981954;23;20429;-76
2023/06/28 00:21:28;;;;;;;1999.90;999.90;;;15.70;99.90;;;;;;4962268;28;20449;-76
2023/06/28 00:23:55;;;;;;;1999.90;999.90;;;15.60;99.90;;;;;;4969338;28;20439;-76
2023/06/28 00:26:22;;;;;;;1999.90;999.90;;;15.60;99.90;;;;;;4969615;28;20683;-76
2023/06/28 00:28:49;;;;;;;1999.90;999.90;;;15.50;99.90;;;;;;4968865;28;20995;-76
2023/06/28 00:31:15;;;;;;;1999.90;999.90;;;15.50;99.90;;;;;;4972672;28;20447;-75
2023/06/28 00:33:42;;;;;;;1999.90;999.90;;;15.40;99.90;;;;;;4972761;28;20444;-76
2023/06/28 00:36:09;;;;;;;1999.90;999.90;;;15.30;99.90;;;;;;4972693;28;20443;-77
2023/06/28 00:38:37;;;;;;;1999.90;999.90;;;15.40;99.90;;;;;;4972245;28;20494;-76
2023/06/28 00:41:03;;;;;;;1999.90;999.90;;;15.50;99.90;;;;;;4972083;28;20510;-76
2023/06/28 00:43:30;;;;;;;1999.90;999.90;;;15.40;99.90;;;;;;4973014;28;20502;-76
2023/06/28 00:45:57;;;;;;;1999.90;999.90;;;15.40;99.90;;;;;;4971947;28;21165;-76
2023/06/28 00:48:24;;;;;;;1999.90;999.90;;;15.30;99.90;;;;;;4970977;28;20466;-76
2023/06/28 00:50:51;;;;;;;1999.90;999.90;;;15.50;99.90;;;;;;4970752;28;20499;-76
2023/06/28 00:53:17;;;;;;;1999.90;999.90;;;15.50;99.90;;;;;;4971941;28;20542;-76
2023/06/28 00:55:46;;;;;;;1999.90;999.90;;;15.40;99.90;;;;;;4971904;28;20486;-76
2023/06/28 00:58:12;;;;;;;1999.90;999.90;;;15.40;99.90;;;;;;4971616;28;20518;-74
2023/06/28 01:00:39;;;;;;;1999.90;999.90;;;15.30;99.90;;;;;;4972967;28;20447;-74
2023/06/28 01:03:06;;;;;;;1999.90;999.90;;;15.20;99.90;;;;;;4972136;28;20950;-74
2023/06/28 01:05:33;;;;;;;1999.90;999.90;;;15.10;99.90;;;;;;4971946;28;21061;-74
2023/06/28 01:08:00;;;;;;;1999.90;999.90;;;15.10;99.90;;;;;;4971498;28;20432;-74
2023/06/28 01:10:26;;;;;;;1999.90;999.90;;;15.20;99.90;;;;;;4972660;28;20444;-74
2023/06/28 01:12:55;;;;;;;1999.90;999.90;;;15.20;99.90;;;;;;4969814;28;20439;-74
2023/06/28 01:15:22;;;;;;;1999.90;999.90;;;15.10;99.90;;;;;;4971705;28;20440;-74
2023/06/28 01:17:50;;;;;;;1999.90;999.90;;;15.00;99.90;;;;;;4971394;28;20487;-75
2023/06/28 01:20:17;;;;;;;1999.90;999.90;;;15.00;99.90;;;;;;4972682;28;20952;-74
2023/06/28 01:22:53;;;;;;;1999.90;999.90;;;15.10;99.90;;;;;;4972006;28;20435;-76
2023/06/28 01:25:20;;;;;;;1999.90;999.90;;;15.10;99.90;;;;;;4972368;28;20440;-77
2023/06/28 01:27:48;;;;;;;1999.90;999.90;;;15.20;99.90;;;;;;4970870;28;20490;-76
2023/06/28 01:30:16;;;;;;;1999.90;999.90;;;15.40;99.90;;;;;;4971938;28;20436;-76
2023/06/28 01:32:43;;;;;;;1999.90;999.90;;;15.40;99.90;;;;;;4968319;28;20518;-75
2023/06/28 01:35:10;;;;;;;1999.90;999.90;;;15.40;99.90;;;;;;4971349;28;20454;-76
2023/06/28 01:37:38;;;;;;;1999.90;999.90;;;15.30;99.90;;;;;;4970616;28;20523;-77
2023/06/28 01:40:08;;;;;;;1999.90;999.90;;;15.30;99.90;;;;;;4971782;28;20439;-76
2023/06/28 01:42:35;;;;;;;1999.90;999.90;;;15.30;99.90;;;;;;4969531;28;22387;-75
2023/06/28 01:45:02;;;;;;;1999.90;999.90;;;15.30;99.90;;;;;;4972410;28;20877;-75
2023/06/28 01:47:29;;;;;;;1999.90;999.90;;;15.30;99.90;;;;;;4970623;28;20487;-74
2023/06/28 01:49:56;;;;;;;1999.90;999.90;;;15.20;99.90;;;;;;4970204;28;20492;-77
2023/06/28 01:52:23;;;;;;;1999.90;999.90;;;15.20;99.90;;;;;;4971108;28;20444;-76
2023/06/28 01:54:50;;;;;;;1999.90;999.90;;;15.30;99.90;;;;;;4971717;28;20436;-76
2023/06/28 01:57:18;;;;;;;1999.90;999.90;;;15.20;99.90;;;;;;4970921;28;20451;-76
2023/06/28 01:59:44;;;;;;;1999.90;999.90;;;15.20;99.90;;;;;;4970710;28;20922;-76
2023/06/28 02:02:11;;;;;;;1999.90;999.90;;;15.20;99.90;;;;;;4970312;28;20471;-74
2023/06/28 02:04:38;;;;;;;1999.90;999.90;;;15.20;99.90;;;;;;4972267;28;20495;-74
2023/06/28 02:07:05;;;;;;;1999.90;999.90;;;15.30;99.90;;;;;;4980853;28;20464;-74
2023/06/28 02:09:31;;;;;;;1999.90;999.90;;;15.20;99.90;;;;;;4983340;28;20432;-77
2023/06/28 02:11:58;;;;;;;1999.90;999.90;;;15.20;99.90;;;;;;4982001;28;20432;-75
2023/06/28 02:14:26;;;;;;;1999.90;999.90;;;15.50;99.90;;;;;;4984223;28;20436;-76
2023/06/28 02:16:54;;;;;;;1999.90;999.90;;;15.20;99.90;;;;;;4981644;28;20435;-77
2023/06/28 02:19:21;;;;;;;1999.90;999.90;;;15.20;99.90;;;;;;4982894;28;20436;-77
2023/06/28 02:21:47;;;;;;;1999.90;999.90;;;15.10;99.90;;;;;;4983275;28;20961;-78
2023/06/28 02:24:14;;;;;;;1999.90;999.90;;;15.00;99.90;;;;;;4976956;28;20450;-76
2023/06/28 02:26:41;;;;;;;1999.90;999.90;;;15.00;99.90;;;;;;4969225;28;20436;-76
2023/06/28 02:29:07;;;;;;;1999.90;999.90;;;15.00;99.90;;;;;;4970723;28;20925;-76
2023/06/28 02:31:35;;;;;;;1999.90;999.90;;;14.90;99.90;;;;;;4969695;28;20489;-76
2023/06/28 02:34:02;;;;;;;1999.90;999.90;;;14.90;99.90;;;;;;4970846;28;20444;-75
2023/06/28 02:36:29;;;;;;;1999.90;999.90;;;14.90;99.90;;;;;;4968924;28;20439;-75
2023/06/28 02:38:55;;;;;;;1999.90;999.90;;;14.90;99.90;;;;;;4970825;28;20440;-74
2023/06/28 02:41:22;;;;;;;1999.90;999.90;;;14.90;99.90;;;;;;4970271;28;20497;-74
2023/06/28 02:43:48;;;;;;;1999.90;999.90;;;14.90;99.90;;;;;;4971482;28;20498;-74
2023/06/28 02:46:15;;;;;;;1999.90;999.90;;;14.90;99.90;;;;;;4968729;28;20850;-75
2023/06/28 02:48:43;;;;;;;1999.90;999.90;;;15.00;99.90;;;;;;4970886;28;20440;-74
2023/06/28 02:51:10;;;;;;;1999.90;999.90;;;14.80;99.90;;;;;;4969183;28;20486;-75
2023/06/28 02:53:37;;;;;;;1999.90;999.90;;;14.80;99.90;;;;;;4970862;28;20447;-74
2023/06/28 02:56:04;;;;;;;1999.90;999.90;;;14.70;99.90;;;;;;4968449;28;20622;-75
2023/06/28 02:58:31;;;;;;;1999.90;999.90;;;14.60;99.90;;;;;;4969777;28;20461;-75
2023/06/28 03:00:58;;;;;;;1999.90;999.90;;;14.60;99.90;;;;;;4970723;28;20440;-74
2023/06/28 03:03:25;;;;;;;1999.90;999.90;;;14.70;99.90;;;;;;4969606;28;20446;-74
2023/06/28 03:05:53;;;;;;;1999.90;999.90;;;14.80;99.90;;;;;;4969149;28;20443;-74
2023/06/28 03:08:19;;;;;;;1999.90;999.90;;;14.70;99.90;;;;;;4969850;28;20494;-74
2023/06/28 03:10:46;;;;;;;1999.90;999.90;;;14.60;99.90;;;;;;4970685;28;20444;-74
2023/06/28 03:13:13;;;;;;;1999.90;999.90;;;14.70;99.90;;;;;;4969022;28;20467;-75
2023/06/28 03:15:40;;;;;;;1999.90;999.90;;;14.70;99.90;;;;;;4970791;28;20519;-76
2023/06/28 03:18:06;;;;;;;1999.90;999.90;;;14.70;99.90;;;;;;4967872;28;20498;-76
2023/06/28 03:20:33;;;;;;;1999.90;999.90;;;14.80;99.90;;;;;;4969533;28;20440;-76
2023/06/28 03:23:03;;;;;;;1999.90;999.90;;;14.80;99.90;;;;;;4968938;28;20440;-76
2023/06/28 03:25:30;;;;;;;1999.90;999.90;;;14.80;99.90;;;;;;4964016;28;20440;-76
2023/06/28 03:27:57;;;;;;;1999.90;999.90;;;15.20;99.90;;;;;;4969080;28;20486;-76
2023/06/28 03:30:24;;;;;;;1999.90;999.90;;;15.00;99.90;;;;;;4966894;28;20444;-76
2023/06/28 03:32:50;;;;;;;1999.90;999.90;;;15.00;99.90;;;;;;4967452;28;20940;-74
2023/06/28 03:35:17;;;;;;;1999.90;999.90;;;15.10;99.90;;;;;;4970052;28;20444;-76
2023/06/28 03:37:50;;;;;;;1999.90;999.90;;;15.20;99.90;;;;;;4969081;28;20447;-75
2023/06/28 03:40:18;;;;;;;1999.90;999.90;;;15.20;99.90;;;;;;4969727;28;20482;-77
2023/06/28 03:42:45;;;;;;;1999.90;999.90;;;15.40;99.90;;;;;;4969364;28;20503;-75
2023/06/28 03:45:11;;;;;;;1999.90;999.90;;;15.50;99.90;;;;;;4969850;28;20439;-76
2023/06/28 03:47:38;;;;;;;1999.90;999.90;;;15.60;99.90;;;;;;4968036;28;20845;-77
2023/06/28 03:50:05;;;;;;;1999.90;999.90;;;15.50;99.90;;;;;;4969341;28;20435;-76
2023/06/28 03:52:32;;;;;;;1999.90;999.90;;;15.40;99.90;;;;;;4963149;28;20438;-76
2023/06/28 03:54:59;;;;;;;1999.90;999.90;;;15.50;99.90;;;;;;4969721;28;20436;-76
2023/06/28 03:57:27;;;;;;;1999.90;999.90;;;15.50;99.90;;;;;;4968669;28;20440;-76
2023/06/28 03:59:53;;;;;;;1999.90;999.90;;;15.50;99.90;;;;;;4969327;28;20447;-75
2023/06/28 04:02:20;;;;;;;1999.90;999.90;;;15.50;99.90;;;;;;4961488;28;20439;-76
2023/06/28 04:04:47;;;;;;;1999.90;999.90;;;15.50;99.90;;;;;;4971261;28;20526;-76
2023/06/28 04:07:15;;;;;;;1999.90;999.90;;;15.50;99.90;;;;;;4973931;28;20439;-76
2023/06/28 04:09:43;;;;;;;1999.90;999.90;;;15.70;99.90;;;;;;4973949;28;20447;-76
2023/06/28 04:12:10;;;;;;;1999.90;999.90;;;15.60;99.90;;;;;;4977380;28;20435;-75
2023/06/28 04:14:38;;;;;;;1999.90;999.90;;;15.60;99.90;;;;;;4987658;28;20512;-77
2023/06/28 04:17:05;;;;;;;1999.90;999.90;;;15.60;99.90;;;;;;4983686;28;20467;-77
2023/06/28 04:19:31;;;;;;;1999.90;999.90;;;15.60;99.90;;;;;;4977970;28;20942;-74
2023/06/28 04:21:58;;;;;;;1999.90;999.90;;;15.70;99.90;;;;;;4973832;28;20934;-73
2023/06/28 04:24:25;;;;;;;1999.90;999.90;;;15.90;99.90;;;;;;4973082;28;20436;-74
2023/06/28 04:26:51;;;;;;;1999.90;999.90;;;16.00;99.90;;;;;;4973506;28;20494;-75
2023/06/28 04:29:18;;;;;;;1999.90;999.90;;;16.00;99.90;;;;;;4974864;28;20445;-74
2023/06/28 04:31:46;;;;;;;1999.90;999.90;;;16.00;99.90;;;;;;4974460;28;20471;-76
2023/06/28 04:34:13;;;;;;;1999.90;999.90;;;16.20;99.90;;;;;;4972984;28;20477;-77
2023/06/28 04:36:39;;;;;;;1999.90;999.90;;;16.90;99.90;;;;;;4972903;28;20439;-76
2023/06/28 04:39:07;;;;;;;1999.90;999.90;;;17.40;99.90;;;;;;4973477;28;20439;-74
2023/06/28 04:41:33;;;;;;;1999.90;999.90;;;17.70;99.90;;;;;;4973033;28;20866;-75
2023/06/28 04:44:00;;;;;;;1999.90;999.90;;;18.30;99.90;;;;;;4970370;28;20494;-75
2023/06/28 04:46:27;;;;;;;1999.90;999.90;;;18.60;99.90;;;;;;4971780;28;20435;-74
2023/06/28 04:48:59;;;;;;;1999.90;999.90;;;18.60;99.90;;;;;;4970500;28;20517;-74
2023/06/28 04:51:27;;;;;;;1999.90;999.90;;;18.50;99.90;;;;;;4971732;28;20530;-75
2023/06/28 04:53:54;;;;;;;1999.90;999.90;;;18.20;99.90;;;;;;4967307;28;20452;-74
2023/06/28 04:56:20;;;;;;;1999.90;999.90;;;18.20;99.90;;;;;;4974256;28;20550;-74
2023/06/28 04:58:47;;;;;;;1999.90;999.90;;;17.90;99.90;;;;;;4973222;28;20464;-74
2023/06/28 05:01:13;;;;;;;1999.90;999.90;;;17.90;99.90;;;;;;4972713;28;20488;-74
2023/06/28 05:03:40;;;;;;;1999.90;999.90;;;17.90;99.90;;;;;;4971815;28;20440;-74
2023/06/28 05:06:10;;;;;;;1999.90;999.90;;;17.80;99.90;;;;;;4972155;28;20498;-74
2023/06/28 05:08:37;;;;;;;1999.90;999.90;;;17.70;99.90;;;;;;4973146;28;20475;-75
2023/06/28 05:11:03;;;;;;;1999.90;999.90;;;17.70;99.90;;;;;;4973221;28;20432;-74
2023/06/28 05:13:30;;;;;;;1999.90;999.90;;;17.30;99.90;;;;;;4971431;28;20439;-74
2023/06/28 05:15:57;;;;;;;1999.90;999.90;;;17.50;99.90;;;;;;4971490;28;20436;-74
2023/06/28 05:18:24;;;;;;;1999.90;999.90;;;17.70;99.90;;;;;;4968554;28;20932;-75
2023/06/28 05:20:50;;;;;;;1999.90;999.90;;;17.90;99.90;;;;;;4971652;28;20918;-74
2023/06/28 05:23:20;;;;;;;1999.90;999.90;;;18.30;99.90;;;;;;4971200;28;20507;-75
2023/06/28 05:25:47;;;;;;;1999.90;999.90;;;18.60;99.90;;;;;;4972768;28;20440;-75
2023/06/28 05:28:15;;;;;;;1999.90;999.90;;;18.60;99.90;;;;;;4972245;28;20464;-74
2023/06/28 05:30:42;;;;;;;1999.90;999.90;;;18.70;99.90;;;;;;4971233;28;20842;-74
2023/06/28 05:33:10;;;;;;;1999.90;999.90;;;18.90;99.90;;;;;;4969689;28;20440;-73
2023/06/28 05:35:37;;;;;;;1999.90;999.90;;;18.90;99.90;;;;;;4970618;28;20440;-74
2023/06/28 05:38:05;;;;;;;1999.90;999.90;;;18.90;99.90;;;;;;4970967;28;20444;-74
2023/06/28 05:40:34;;;;;;;1999.90;999.90;;;19.10;99.90;;;;;;4969688;28;20930;-74
2023/06/28 05:43:01;;;;;;;1999.90;999.90;;;19.50;99.90;;;;;;4970808;28;20439;-74
2023/06/28 05:45:29;;;;;;;1999.90;999.90;;;19.30;99.90;;;;;;4971276;28;20444;-75
2023/06/28 05:47:57;;;;;;;1999.90;999.90;;;19.30;99.90;;;;;;4971137;28;20443;-75
2023/06/28 05:50:24;;;;;;;1999.90;999.90;;;19.50;99.90;;;;;;4973668;28;20843;-76
2023/06/28 05:52:51;;;;;;;1999.90;999.90;;;19.10;99.90;;;;;;4971012;28;20932;-76
2023/06/28 05:55:17;;;;;;;1999.90;999.90;;;19.00;99.90;;;;;;4972315;28;21006;-74
2023/06/28 05:57:47;;;;;;;1999.90;999.90;;;18.80;99.90;;;;;;4969951;28;20919;-76
2023/06/28 06:00:14;;;;;;;1999.90;999.90;;;18.40;99.90;;;;;;4971099;28;20440;-76
2023/06/28 06:02:41;;;;;;;1999.90;999.90;;;18.10;99.90;;;;;;4970248;28;20440;-76
2023/06/28 06:05:08;;;;;;;1999.90;999.90;;;18.00;99.90;;;;;;4971121;28;20455;-75
2023/06/28 06:07:39;;;;;;;1999.90;999.90;;;18.10;99.90;;;;;;4971036;28;20435;-75
2023/06/28 06:10:07;;;;;;;1999.90;999.90;;;18.30;99.90;;;;;;4971319;28;20830;-75
2023/06/28 06:12:33;;;;;;;1999.90;999.90;;;18.70;99.90;;;;;;4970211;28;20491;-75
2023/06/28 06:15:02;;;;;;;1999.90;999.90;;;18.80;99.90;;;;;;4970388;28;20533;-76
2023/06/28 06:17:28;;;;;;;1999.90;999.90;;;18.90;99.90;;;;;;4972253;28;20438;-75
2023/06/28 06:19:55;;;;;;;1999.90;999.90;;;18.80;99.90;;;;;;4968343;28;21019;-76
2023/06/28 06:22:21;;;;;;;1999.90;999.90;;;18.60;99.90;;;;;;4990827;23;20954;-75
2023/06/28 06:24:48;;;;;;;1999.90;999.90;;;18.50;99.90;;;;;;4987405;28;20986;-76
2023/06/28 06:27:15;;;;;;;1999.90;999.90;;;18.50;99.90;;;;;;4988499;28;20454;-75
2023/06/28 06:29:41;;;;;;;1999.90;999.90;;;18.50;99.90;;;;;;4989469;28;20468;-75
2023/06/28 06:32:10;;;;;;;1999.90;999.90;;;18.50;99.90;;;;;;4986375;28;20434;-74
2023/06/28 06:34:36;;;;;;;1999.90;999.90;;;18.60;99.90;;;;;;4968359;28;20443;-75
2023/06/28 06:37:04;;;;;;;1999.90;999.90;;;18.90;99.90;;;;;;4970486;28;20825;-75
2023/06/28 06:39:31;;;;;;;1999.90;999.90;;;18.60;99.90;;;;;;4965483;28;20446;-75
2023/06/28 06:41:58;;;;;;;1999.90;999.90;;;18.60;99.90;;;;;;4970257;28;20451;-75
2023/06/28 06:44:24;;;;;;;1999.90;999.90;;;18.90;99.90;;;;;;4968230;28;20444;-75
2023/06/28 06:46:51;;;;;;;1999.90;999.90;;;19.20;99.90;;;;;;4969015;28;20538;-72
2023/06/28 06:49:20;;;;;;;1999.90;999.90;;;19.50;99.90;;;;;;4970219;28;20440;-71
2023/06/28 06:51:47;;;;;;;1999.90;999.90;;;19.60;99.90;;;;;;4969894;28;20980;-75
2023/06/28 06:54:13;;;;;;;1999.90;999.90;;;19.60;99.90;;;;;;4968908;28;20444;-73
2023/06/28 06:56:40;;;;;;;1999.90;999.90;;;19.40;99.90;;;;;;4969266;28;20444;-74
2023/06/28 06:59:07;;;;;;;1999.90;999.90;;;19.50;99.90;;;;;;4970084;28;20847;-75
2023/06/28 07:01:34;;;;;;;1999.90;999.90;;;19.50;99.90;;;;;;4969446;28;20440;-71
2023/06/28 07:04:01;;;;;;;1999.90;999.90;;;19.60;99.90;;;;;;4969106;28;20474;-75
2023/06/28 07:06:29;;;;;;;1999.90;999.90;;;19.80;99.90;;;;;;4970653;28;20440;-75
2023/06/28 07:08:57;;;;;;;1999.90;999.90;;;20.10;99.90;;;;;;4972074;28;20427;-75
2023/06/28 07:11:25;;;;;;;1999.90;999.90;;;20.10;99.90;;;;;;4971748;28;20772;-75
2023/06/28 07:13:52;;;;;;;1999.90;999.90;;;20.10;99.90;;;;;;4971686;28;20891;-75
2023/06/28 07:16:18;;;;;;;1999.90;999.90;;;20.20;99.90;;;;;;4970545;28;20444;-75
2023/06/28 07:18:45;;;;;;;1999.90;999.90;;;20.30;99.90;;;;;;4972273;28;20416;-76
2023/06/28 07:21:14;;;;;;;1999.90;999.90;;;20.30;99.90;;;;;;4971479;28;20502;-75
2023/06/28 07:23:42;;;;;;;1999.90;999.90;;;20.40;99.90;;;;;;4971513;28;20491;-75
2023/06/28 07:26:09;;;;;;;1999.90;999.90;;;20.30;99.90;;;;;;4968052;28;20922;-74
2023/06/28 07:28:35;;;;;;;1999.90;999.90;;;20.40;99.90;;;;;;4967686;28;20440;-72
2023/06/28 07:31:02;;;;;;;1999.90;999.90;;;20.60;99.90;;;;;;4968944;28;20507;-72
2023/06/28 07:33:29;;;;;;;1999.90;999.90;;;20.50;99.90;;;;;;4971226;28;20424;-76
2023/06/28 07:35:55;;;;;;;1999.90;999.90;;;20.50;99.90;;;;;;4971694;28;20883;-75
2023/06/28 07:38:22;;;;;;;1999.90;999.90;;;20.70;99.90;;;;;;4969536;28;20883;-75
2023/06/28 07:40:51;;;;;;;1999.90;999.90;;;20.80;99.90;;;;;;4967597;28;21102;-75
2023/06/28 07:43:19;;;;;;;1999.90;999.90;;;20.80;99.90;;;;;;4970584;28;20427;-75
2023/06/28 07:45:46;;;;;;;1999.90;999.90;;;20.90;99.90;;;;;;4971472;28;20919;-75
2023/06/28 07:48:13;;;;;;;1999.90;999.90;;;20.90;99.90;;;;;;4971846;28;20427;-73
2023/06/28 07:50:40;;;;;;;1999.90;999.90;;;21.00;99.90;;;;;;4970848;28;20487;-73
2023/06/28 07:53:06;;;;;;;1999.90;999.90;;;21.10;99.90;;;;;;4970110;28;20431;-73
2023/06/28 07:55:33;;;;;;;1999.90;999.90;;;21.30;99.90;;;;;;4952526;29;20421;-72
2023/06/28 07:58:01;;;;;;;1999.90;999.90;;;21.30;99.90;;;;;;4952126;29;20422;-73
2023/06/28 08:00:30;;;;;;;1999.90;999.90;;;21.40;99.90;;;;;;4952154;29;20948;-73
2023/06/28 08:02:57;;;;;;;1999.90;999.90;;;21.30;99.90;;;;;;4968809;28;20436;-75
2023/06/28 08:05:24;;;;;;;1999.90;999.90;;;21.20;99.90;;;;;;4971656;28;20455;-75
2023/06/28 08:07:52;;;;;;;1999.90;999.90;;;21.10;99.90;;;;;;4971666;28;20424;-76
2023/06/28 08:10:19;;;;;;;1999.90;999.90;;;20.90;99.90;;;;;;4971438;28;20424;-75
2023/06/28 08:12:46;;;;;;;1999.90;999.90;;;21.10;98.90;;;;;;4969109;28;20927;-75
2023/06/28 08:15:14;;;;;;;1999.90;999.90;;;21.00;99.90;;;;;;4969831;28;20478;-73
2023/06/28 08:17:41;;;;;;;1999.90;999.90;;;21.10;98.70;;;;;;4965073;28;20506;-76
2023/06/28 08:20:08;;;;;;;1999.90;999.90;;;21.30;97.90;;;;;;4971199;28;20518;-75
2023/06/28 08:22:35;;;;;;;1999.90;999.90;;;21.20;99.50;;;;;;4967557;28;20451;-73
2023/06/28 08:25:01;;;;;;;1999.90;999.90;;;21.50;99.90;;;;;;4971184;28;20424;-75
2023/06/28 08:27:28;;;;;;;1999.90;999.90;;;21.40;99.40;;;;;;4970843;28;20827;-76
2023/06/28 08:29:54;;;;;;;1999.90;999.90;;;21.60;98.70;;;;;;4969195;28;20440;-73
2023/06/28 08:32:22;;;;;;;1999.90;999.90;;;21.80;99.10;;;;;;4969108;28;21004;-73
2023/06/28 08:34:49;;;;;;;1999.90;999.90;;;21.80;98.30;;;;;;4971407;28;20424;-74
2023/06/28 08:37:16;;;;;;;1999.90;999.90;;;21.70;97.80;;;;;;4971356;28;20416;-75
2023/06/28 08:39:43;;;;;;;1999.90;999.90;;;22.10;98.80;;;;;;4968850;28;20993;-73
2023/06/28 08:42:10;;;;;;;1999.90;999.90;;;21.50;99.00;;;;;;4967735;28;20528;-76
2023/06/28 08:44:39;;;;;;;1999.90;999.90;;;21.50;97.80;;;;;;4962548;28;20827;-76
2023/06/28 08:47:07;;;;;;;1999.90;999.90;;;21.70;98.40;;;;;;4970627;28;20519;-72
2023/06/28 08:49:36;;;;;;;1999.90;999.90;;;22.00;97.30;;;;;;4970129;28;20494;-69
2023/06/28 08:52:04;;;;;;;1999.90;999.90;;;22.10;96.70;;;;;;4973553;28;20435;-71
2023/06/28 08:54:32;;;;;;;1999.90;999.90;;;22.10;97.60;;;;;;4974858;28;20482;-72
2023/06/28 08:57:00;;;;;;;1999.90;999.90;;;22.10;97.00;;;;;;4974192;28;20902;-72
2023/06/28 08:59:28;;;;;;;1999.90;999.90;;;22.10;97.40;;;;;;4973714;28;20440;-73
2023/06/28 09:01:56;;;;;;;1999.90;999.90;;;22.20;97.00;;;;;;4974183;28;20486;-73
2023/06/28 09:04:23;;;;;;;1999.90;999.90;;;21.90;96.10;;;;;;4973893;28;20420;-75
2023/06/28 09:06:52;;;;;;;1999.90;999.90;;;21.70;96.80;;;;;;4974610;28;20479;-75
2023/06/28 09:09:19;;;;;;;1999.90;999.90;;;21.60;96.70;;;;;;4973805;28;20440;-75
2023/06/28 09:11:46;;;;;;;1999.90;999.90;;;21.70;96.80;;;;;;4974059;28;20431;-75
2023/06/28 09:14:13;;;;;;;1999.90;999.90;;;22.00;95.80;;;;;;4968790;28;20847;-74
2023/06/28 09:16:40;;;;;;;1999.90;999.90;;;22.40;95.00;;;;;;4968960;28;20859;-74
2023/06/28 09:19:07;;;;;;;1999.90;999.90;;;22.40;95.00;;;;;;4968945;28;20431;-71
2023/06/28 09:21:34;;;;;;;1999.90;999.90;;;22.70;95.40;;;;;;4970886;28;20443;-71
2023/06/28 09:24:03;;;;;;;1999.90;999.90;;;23.00;95.50;;;;;;4970152;28;20436;-72
2023/06/28 09:26:33;;;;;;;1999.90;999.90;;;23.00;95.20;;;;;;4972965;28;20842;-73
2023/06/28 09:29:00;;;;;;;1999.90;999.90;;;23.40;95.50;;;;;;4973853;28;20846;-73
2023/06/28 09:31:31;;;;;;;1999.90;999.90;;;23.80;94.70;;;;;;4971544;28;20534;-73
2023/06/28 09:33:58;;;;;;;1999.90;999.90;;;24.10;93.80;;;;;;4965289;28;20962;-72
2023/06/28 09:36:25;;;;;;;1999.90;999.90;;;24.10;93.90;;;;;;4968665;28;20436;-73
2023/06/28 09:38:52;;;;;;;1999.90;999.90;;;24.10;94.10;;;;;;4972123;28;20447;-73
2023/06/28 09:41:20;;;;;;;1999.90;999.90;;;24.10;94.60;;;;;;4969796;28;20926;-73
2023/06/28 09:43:47;;;;;;;1999.90;999.90;;;23.90;94.10;;;;;;4972146;28;20853;-73
2023/06/28 09:46:16;;;;;;;1999.90;999.90;;;24.00;93.40;;;;;;4972565;28;20449;-73
2023/06/28 09:48:44;;;;;;;1999.90;999.90;;;23.80;93.80;;;;;;4954679;29;20508;-72
2023/06/28 09:51:11;;;;;;;1999.90;999.90;;;23.70;94.40;;;;;;4953922;29;20893;-73
2023/06/28 09:53:49;;;;;;;1999.90;999.90;;;24.00;94.30;;;;;;4954071;28;20424;-70
2023/06/28 09:56:16;;;;;;;1999.90;999.90;;;23.80;94.10;;;;;;4970778;28;20524;-73
2023/06/28 09:58:45;;;;;;;1999.90;999.90;;;23.70;94.70;;;;;;4973148;28;20432;-73
2023/06/28 10:01:14;;;;;;;1999.90;999.90;;;23.90;94.60;;;;;;4972897;28;20927;-73
2023/06/28 10:03:42;;;;;;;1999.90;999.90;;;23.90;94.60;;;;;;4972310;28;20471;-73
2023/06/28 10:06:10;;;;;;;1999.90;999.90;;;23.90;93.40;;;;;;4970862;28;20926;-73
2023/06/28 10:08:38;;;;;;;1999.90;999.90;;;23.80;94.30;;;;;;4973282;28;20436;-73
2023/06/28 10:11:09;;;;;;;1999.90;999.90;;;24.00;93.50;;;;;;4970632;28;20435;-69
2023/06/28 10:13:37;;;;;;;1999.90;999.90;;;24.20;92.50;;;;;;4971007;28;20436;-72
2023/06/28 10:16:10;;;;;;;1999.90;999.90;;;24.40;92.80;;;;;;4970008;28;20447;-71
2023/06/28 10:18:36;;;;;;;1999.90;999.90;;;24.30;92.40;;;;;;4971845;28;20776;-72
2023/06/28 10:21:06;;;;;;;1999.90;999.90;;;23.80;91.90;;;;;;4970022;28;20834;-70
2023/06/28 10:23:35;;;;;;;1999.90;999.90;;;23.50;92.20;;;;;;4969685;28;20435;-71
2023/06/28 10:26:03;;;;;;;1999.90;999.90;;;23.40;93.10;;;;;;4968541;28;20436;-72
2023/06/28 10:28:32;;;;;;;1999.90;999.90;;;23.20;93.80;;;;;;4969398;28;20448;-73
2023/06/28 10:31:01;;;;;;;1999.90;999.90;;;23.10;93.10;;;;;;4967223;28;21294;-73
2023/06/28 10:33:32;;;;;;;1999.90;999.90;;;23.00;93.30;;;;;;4966891;28;20451;-72
2023/06/28 10:36:00;;;;;;;1999.90;999.90;;;23.00;92.80;;;;;;4969728;28;20440;-73
2023/06/28 10:38:27;;;;;;;1999.90;999.90;;;23.00;93.60;;;;;;4970923;28;20527;-72
2023/06/28 10:40:55;;;;;;;1999.90;999.90;;;23.20;93.90;;;;;;4969751;28;20446;-73
2023/06/28 10:43:23;;;;;;;1999.90;999.90;;;23.30;94.30;;;;;;4969664;28;20440;-73
2023/06/28 10:45:51;;;;;;;1999.90;999.90;;;23.60;93.60;;;;;;4968812;28;20875;-73
2023/06/28 10:48:19;;;;;;;1999.90;999.90;;;23.90;91.90;;;;;;4970428;28;20955;-72
2023/06/28 10:50:49;;;;;;;1999.90;999.90;;;23.90;92.30;;;;;;4964961;28;20432;-73
2023/06/28 10:53:22;;;;;;;1999.90;999.90;;;24.00;93.00;;;;;;4968430;28;20439;-73
2023/06/28 10:56:09;;;;;;;1999.90;999.90;;;23.60;93.40;;;;;;4964587;28;20499;-72
2023/06/28 10:58:40;;;;;;;1999.90;999.90;;;23.30;93.40;;;;;;4967601;28;20842;-72
2023/06/28 11:01:08;;;;;;;1999.90;999.90;;;23.20;92.30;;;;;;4963603;28;20441;-71
2023/06/28 11:03:39;;;;;;;1999.90;999.90;;;23.10;92.20;;;;;;4968298;28;20435;-72
2023/06/28 11:06:08;;;;;;;1999.90;999.90;;;23.20;93.10;;;;;;4969234;28;20490;-73
2023/06/28 11:08:40;;;;;;;1999.90;999.90;;;23.50;92.30;;;;;;4969846;28;20440;-72
2023/06/28 11:11:08;;;;;;;1999.90;999.90;;;23.80;92.70;;;;;;4967853;28;20431;-70
2023/06/28 11:13:46;;;;;;;1999.90;999.90;;;24.10;92.00;;;;;;4969253;28;20440;-72
2023/06/28 11:16:16;;;;;;;1999.90;999.90;;;24.40;91.60;;;;;;4966828;28;20884;-72
2023/06/28 11:18:43;;;;;;;1999.90;999.90;;;24.50;91.50;;;;;;4970127;28;20436;-73
2023/06/28 11:21:16;;;;;;;1999.90;999.90;;;24.60;92.10;;;;;;4967547;28;20439;-72
2023/06/28 11:23:44;;;;;;;1999.90;999.90;;;25.00;92.40;;;;;;4968720;28;20440;-75
2023/06/28 11:26:14;;;;;;;1999.90;999.90;;;25.40;91.20;;;;;;4969193;28;20506;-73
2023/06/28 11:28:48;;;;;;;1999.90;999.90;;;25.30;91.00;;;;;;4969830;28;20451;-72
2023/06/28 11:31:17;;;;;;;1999.90;999.90;;;25.10;90.80;;;;;;4967156;28;20918;-72
2023/06/28 11:33:44;;;;;;;1999.90;999.90;;;25.30;91.30;;;;;;4967012;28;20447;-72
2023/06/28 11:36:12;;;;;;;1999.90;999.90;;;25.10;90.40;;;;;;4968218;28;20439;-72
2023/06/28 11:38:44;;;;;;;1999.90;999.90;;;24.80;91.00;;;;;;4968699;28;20443;-72
2023/06/28 11:41:10;;;;;;;1999.90;999.90;;;24.50;92.20;;;;;;4967262;28;20435;-72
2023/06/28 11:43:37;;;;;;;1999.90;999.90;;;24.40;92.10;;;;;;4972527;28;20451;-73
2023/06/28 11:46:04;;;;;;;1999.90;999.90;;;24.30;91.30;;;;;;4968597;28;20440;-72
2023/06/28 11:48:31;;;;;;;1999.90;999.90;;;24.20;91.50;;;;;;4968676;28;20444;-72
2023/06/28 11:50:58;;;;;;;1999.90;999.90;;;24.20;91.50;;;;;;4966029;28;20983;-72
2023/06/28 11:53:25;;;;;;;1999.90;999.90;;;24.50;91.80;;;;;;4965751;28;20503;-72
2023/06/28 11:55:56;;;;;;;1999.90;999.90;;;24.70;92.00;;;;;;4969473;28;20494;-73
2023/06/28 11:58:31;;;;;;;1999.90;999.90;;;24.50;90.30;;;;;;4966640;28;20448;-72
2023/06/28 12:00:58;;;;;;;1999.90;999.90;;;24.30;92.80;;;;;;4962743;28;20440;-72
2023/06/28 12:03:31;;;;;;;1999.90;999.90;;;24.40;91.80;;;;;;4968300;28;20439;-72